Time;durP1;ratioP1;P1;durP2;ratioP2;P2;SDS_P1;SDS_P2;PMS_P1;PMS_P2;Temp;Humidity;BMP_temperature;BMP_pressure;BME280_temperature;BME280_humidity;BME280_pressure;Samples;Min_cycle;Max_cycle;Signal;HPM_P1;HPM_P2
2024/03/13 00:00:57;;;;;;;38.95;23.75;;;;;;;;;;5051465;28;20032;-78
2024/03/13 00:03:24;;;;;;;39.92;23.23;;;;;;;;;;5052592;28;20024;-74
2024/03/13 00:05:50;;;;;;;39.10;24.17;;;;;;;;;;5052718;28;20082;-76
2024/03/13 00:08:16;;;;;;;38.80;23.85;;;;;;;;;;5052470;28;20032;-75
2024/03/13 00:10:43;;;;;;;39.22;24.35;;;;;;;;;;5051380;28;20029;-76
2024/03/13 00:13:09;;;;;;;43.50;25.23;;;;;;;;;;5052316;28;20086;-76
2024/03/13 00:15:35;;;;;;;43.88;26.20;;;;;;;;;;5051311;28;20090;-74
2024/03/13 00:18:04;;;;;;;44.15;25.45;;;;;;;;;;5051013;28;20028;-75
2024/03/13 00:20:32;;;;;;;41.30;25.13;;;;;;;;;;5051232;28;20031;-74
2024/03/13 00:22:59;;;;;;;46.78;26.10;;;;;;;;;;5051924;28;20049;-75
2024/03/13 00:25:25;;;;;;;43.25;26.58;;;;;;;;;;5052401;28;20106;-75
2024/03/13 00:27:51;;;;;;;46.63;27.05;;;;;;;;;;5051032;28;20513;-74
2024/03/13 00:30:17;;;;;;;45.72;24.88;;;;;;;;;;5050806;28;20021;-75
2024/03/13 00:32:44;;;;;;;46.00;27.33;;;;;;;;;;5050974;28;20052;-75
2024/03/13 00:35:13;;;;;;;43.88;24.15;;;;;;;;;;5050938;28;20365;-75
2024/03/13 00:37:39;;;;;;;43.50;25.33;;;;;;;;;;5051012;28;20029;-75
2024/03/13 00:40:06;;;;;;;49.65;26.58;;;;;;;;;;5052205;28;20075;-75
2024/03/13 00:42:32;;;;;;;45.03;25.90;;;;;;;;;;5052195;28;20472;-75
2024/03/13 00:44:58;;;;;;;41.65;26.48;;;;;;;;;;5052431;28;20052;-75
2024/03/13 00:47:24;;;;;;;42.50;26.05;;;;;;;;;;5052186;28;20473;-75
2024/03/13 00:49:54;;;;;;;42.15;25.48;;;;;;;;;;5050834;28;20025;-75
2024/03/13 00:52:21;;;;;;;41.47;24.75;;;;;;;;;;5051850;28;20033;-75
2024/03/13 00:54:48;;;;;;;45.90;27.13;;;;;;;;;;5052053;28;20087;-76
2024/03/13 00:57:17;;;;;;;43.13;25.58;;;;;;;;;;5050593;28;20029;-77
2024/03/13 00:59:43;;;;;;;43.78;25.90;;;;;;;;;;5050846;28;20024;-77
2024/03/13 01:02:10;;;;;;;40.75;24.98;;;;;;;;;;5051942;28;20043;-77
2024/03/13 01:04:36;;;;;;;39.20;23.83;;;;;;;;;;5050682;28;20427;-77
2024/03/13 01:07:06;;;;;;;39.60;24.65;;;;;;;;;;5050480;28;20025;-77
2024/03/13 01:09:32;;;;;;;40.15;25.23;;;;;;;;;;5050653;28;20169;-77
2024/03/13 01:11:58;;;;;;;40.45;24.98;;;;;;;;;;5051898;28;20104;-77
2024/03/13 01:14:24;;;;;;;39.45;24.33;;;;;;;;;;5050475;28;20052;-77
2024/03/13 01:16:52;;;;;;;43.00;25.65;;;;;;;;;;5050319;28;20032;-77
2024/03/13 01:19:19;;;;;;;41.58;24.98;;;;;;;;;;5050366;28;20033;-76
2024/03/13 01:21:53;;;;;;;45.30;25.25;;;;;;;;;;5050525;28;20037;-76
2024/03/13 01:24:19;;;;;;;45.45;25.67;;;;;;;;;;5051199;28;20057;-76
2024/03/13 01:26:45;;;;;;;41.80;24.58;;;;;;;;;;5051786;28;20018;-77
2024/03/13 01:29:12;;;;;;;44.67;25.13;;;;;;;;;;5050441;28;20056;-77
2024/03/13 01:31:39;;;;;;;40.35;24.20;;;;;;;;;;5050352;28;20033;-77
2024/03/13 01:34:05;;;;;;;37.83;23.50;;;;;;;;;;5050264;28;20115;-77
2024/03/13 01:39:20;;;;;;;35.65;22.63;;;;;;;;;;5051520;28;20051;-76
2024/03/13 01:55:44;;;;;;;42.28;22.88;;;;;;;;;;5054171;28;20091;-75
2024/03/13 01:58:12;;;;;;;39.28;23.70;;;;;;;;;;5054996;28;20021;-77
2024/03/13 02:03:26;;;;;;;40.53;22.38;;;;;;;;;;5054753;28;20043;-76
2024/03/13 02:05:52;;;;;;;41.53;23.35;;;;;;;;;;5053526;28;20098;-76
2024/03/13 02:08:19;;;;;;;36.38;21.48;;;;;;;;;;5053422;28;20110;-76
2024/03/13 02:10:47;;;;;;;42.75;23.67;;;;;;;;;;5053158;28;20029;-75
2024/03/13 02:13:14;;;;;;;40.40;23.10;;;;;;;;;;5054411;28;20041;-76
2024/03/13 02:15:41;;;;;;;40.90;23.73;;;;;;;;;;5053394;28;20032;-76
2024/03/13 02:18:19;;;;;;;40.25;22.50;;;;;;;;;;5053178;28;20443;-76
2024/03/13 02:20:46;;;;;;;38.05;21.63;;;;;;;;;;5053324;28;20079;-76
2024/03/13 02:23:14;;;;;;;34.85;19.40;;;;;;;;;;5054213;28;20040;-75
2024/03/13 02:25:41;;;;;;;41.25;23.80;;;;;;;;;;5053195;28;20071;-76
2024/03/13 02:28:07;;;;;;;41.95;22.63;;;;;;;;;;5054051;28;20078;-76
2024/03/13 02:30:33;;;;;;;43.53;23.45;;;;;;;;;;5054246;28;20029;-77
2024/03/13 02:33:00;;;;;;;40.72;22.40;;;;;;;;;;5052812;28;20040;-75
2024/03/13 02:35:26;;;;;;;44.25;24.42;;;;;;;;;;5053907;28;20032;-76
2024/03/13 02:37:52;;;;;;;43.17;24.42;;;;;;;;;;5053073;28;20032;-75
2024/03/13 02:40:18;;;;;;;45.97;23.58;;;;;;;;;;5054363;28;20017;-73
2024/03/13 02:42:44;;;;;;;64.50;25.95;;;;;;;;;;5054275;28;20055;-77
2024/03/13 02:45:13;;;;;;;58.17;25.30;;;;;;;;;;5052688;28;20524;-73
2024/03/13 02:47:43;;;;;;;55.83;27.00;;;;;;;;;;5052965;28;20045;-75
2024/03/13 02:50:11;;;;;;;58.22;25.08;;;;;;;;;;5052318;28;20025;-75
2024/03/13 02:52:42;;;;;;;55.83;24.75;;;;;;;;;;5053719;28;20440;-76
2024/03/13 02:55:10;;;;;;;101.13;27.60;;;;;;;;;;5053764;28;20016;-76
2024/03/13 02:57:36;;;;;;;79.63;28.20;;;;;;;;;;5052676;28;20384;-76
2024/03/13 03:00:06;;;;;;;47.35;24.65;;;;;;;;;;5053959;28;20083;-76
2024/03/13 03:02:32;;;;;;;54.63;26.52;;;;;;;;;;5052421;28;20032;-76
2024/03/13 03:04:59;;;;;;;59.10;24.48;;;;;;;;;;5053851;28;20040;-76
2024/03/13 03:07:25;;;;;;;119.70;28.60;;;;;;;;;;5052484;28;20057;-77
2024/03/13 03:09:51;;;;;;;159.80;29.13;;;;;;;;;;5053743;28;20028;-76
2024/03/13 03:12:17;;;;;;;70.57;26.73;;;;;;;;;;5052091;28;20033;-75
2024/03/13 03:14:43;;;;;;;218.43;34.08;;;;;;;;;;5052373;28;20112;-76
2024/03/13 03:17:10;;;;;;;70.05;25.95;;;;;;;;;;5052052;28;20025;-76
2024/03/13 03:19:37;;;;;;;108.70;28.50;;;;;;;;;;5053819;28;20099;-76
2024/03/13 03:22:03;;;;;;;192.18;33.53;;;;;;;;;;5053553;28;20025;-75
2024/03/13 03:24:32;;;;;;;243.38;35.97;;;;;;;;;;5051653;28;20484;-75
2024/03/13 03:26:58;;;;;;;179.68;31.20;;;;;;;;;;5053472;28;20025;-75
2024/03/13 03:29:26;;;;;;;73.43;28.00;;;;;;;;;;5053211;28;20021;-76
2024/03/13 03:31:52;;;;;;;65.45;29.10;;;;;;;;;;5051795;28;20025;-75
2024/03/13 03:34:18;;;;;;;80.55;28.85;;;;;;;;;;5051631;28;20025;-75
2024/03/13 03:36:44;;;;;;;290.83;36.90;;;;;;;;;;5051947;28;20491;-77
2024/03/13 03:39:15;;;;;;;255.15;35.70;;;;;;;;;;5053195;28;20025;-74
2024/03/13 03:41:41;;;;;;;214.63;32.08;;;;;;;;;;5053239;28;20021;-75
2024/03/13 03:44:11;;;;;;;91.43;28.10;;;;;;;;;;5053293;28;20029;-75
2024/03/13 03:46:37;;;;;;;210.35;32.90;;;;;;;;;;5051797;28;20123;-75
2024/03/13 03:49:03;;;;;;;63.67;28.33;;;;;;;;;;5051549;28;20029;-75
2024/03/13 03:51:29;;;;;;;67.07;27.33;;;;;;;;;;5051131;28;20029;-76
2024/03/13 03:53:55;;;;;;;111.45;29.92;;;;;;;;;;5052711;28;20025;-76
2024/03/13 03:56:22;;;;;;;80.50;28.30;;;;;;;;;;5051180;28;20021;-76
2024/03/13 03:58:50;;;;;;;88.18;28.23;;;;;;;;;;5051263;28;20143;-76
2024/03/13 04:01:16;;;;;;;74.72;28.05;;;;;;;;;;5052796;28;20028;-75
2024/03/13 04:03:42;;;;;;;58.97;26.85;;;;;;;;;;5052674;28;20032;-75
2024/03/13 04:06:08;;;;;;;57.13;27.25;;;;;;;;;;5052635;28;20022;-75
2024/03/13 04:08:34;;;;;;;79.75;27.55;;;;;;;;;;5051140;28;20116;-75
2024/03/13 04:11:01;;;;;;;76.93;25.85;;;;;;;;;;5052257;28;20048;-75
2024/03/13 04:13:27;;;;;;;88.78;26.65;;;;;;;;;;5051067;28;20108;-76
2024/03/13 04:15:53;;;;;;;52.72;24.35;;;;;;;;;;5052365;28;20025;-76
2024/03/13 04:18:19;;;;;;;54.45;23.20;;;;;;;;;;5052408;28;20051;-75
2024/03/13 04:20:45;;;;;;;53.72;24.38;;;;;;;;;;5052271;28;20070;-74
2024/03/13 04:23:13;;;;;;;59.60;26.42;;;;;;;;;;5050943;28;20049;-75
2024/03/13 04:25:40;;;;;;;51.60;23.65;;;;;;;;;;5052468;28;20104;-75
2024/03/13 04:28:08;;;;;;;48.80;22.38;;;;;;;;;;5051104;28;20116;-76
2024/03/13 04:30:34;;;;;;;52.53;23.50;;;;;;;;;;5050794;28;20025;-76
2024/03/13 04:33:00;;;;;;;45.65;21.88;;;;;;;;;;5050814;28;20033;-76
2024/03/13 04:35:26;;;;;;;46.78;23.27;;;;;;;;;;5050739;28;20047;-75
2024/03/13 04:37:52;;;;;;;50.90;23.40;;;;;;;;;;5050926;28;20058;-76
2024/03/13 04:40:19;;;;;;;56.42;25.33;;;;;;;;;;5051528;28;20476;-75
2024/03/13 04:42:46;;;;;;;56.78;25.60;;;;;;;;;;5052208;28;20028;-75
2024/03/13 04:45:12;;;;;;;61.35;27.58;;;;;;;;;;5050875;28;20025;-75
2024/03/13 04:47:38;;;;;;;58.50;28.40;;;;;;;;;;5050554;28;20453;-75
2024/03/13 04:50:04;;;;;;;68.38;27.17;;;;;;;;;;5051026;28;20028;-75
2024/03/13 04:52:30;;;;;;;59.00;26.88;;;;;;;;;;5051966;28;20084;-75
2024/03/13 04:54:56;;;;;;;61.20;27.02;;;;;;;;;;5051833;28;20048;-75
2024/03/13 04:57:22;;;;;;;61.35;27.23;;;;;;;;;;5051941;28;20053;-75
2024/03/13 04:59:51;;;;;;;94.88;29.48;;;;;;;;;;5051940;28;20048;-76
2024/03/13 05:02:18;;;;;;;64.22;28.08;;;;;;;;;;5051884;28;20499;-75
2024/03/13 05:04:44;;;;;;;65.75;27.27;;;;;;;;;;5050569;28;20132;-74
2024/03/13 05:07:12;;;;;;;54.72;24.73;;;;;;;;;;5051859;28;20061;-76
2024/03/13 05:09:40;;;;;;;62.58;27.15;;;;;;;;;;5051592;28;20090;-75
2024/03/13 05:12:06;;;;;;;61.80;27.73;;;;;;;;;;5052015;28;20105;-75
2024/03/13 05:14:33;;;;;;;58.75;26.48;;;;;;;;;;5050227;28;20044;-75
2024/03/13 05:16:59;;;;;;;62.92;27.27;;;;;;;;;;5050560;28;20064;-76
2024/03/13 05:19:25;;;;;;;68.78;27.58;;;;;;;;;;5051552;28;20021;-76
2024/03/13 05:21:52;;;;;;;107.88;30.70;;;;;;;;;;5050536;28;20051;-77
2024/03/13 05:24:18;;;;;;;153.23;29.85;;;;;;;;;;5051560;28;20451;-76
2024/03/13 05:26:46;;;;;;;171.20;32.80;;;;;;;;;;5051815;28;20033;-76
2024/03/13 05:29:13;;;;;;;64.88;27.05;;;;;;;;;;5034370;28;20053;-77
2024/03/13 05:31:40;;;;;;;106.43;30.50;;;;;;;;;;5054088;28;20416;-76
2024/03/13 05:34:08;;;;;;;80.28;27.88;;;;;;;;;;5054305;28;20057;-76
2024/03/13 05:36:35;;;;;;;69.38;25.13;;;;;;;;;;5053984;28;20457;-75
2024/03/13 05:39:01;;;;;;;67.07;25.15;;;;;;;;;;5054153;28;20119;-75
2024/03/13 05:41:27;;;;;;;77.53;25.83;;;;;;;;;;5053894;28;20028;-76
2024/03/13 05:43:54;;;;;;;66.68;24.35;;;;;;;;;;5055557;28;20021;-75
2024/03/13 05:46:22;;;;;;;61.17;23.23;;;;;;;;;;5053887;28;20120;-74
2024/03/13 05:48:48;;;;;;;63.50;23.52;;;;;;;;;;5054040;28;20032;-74
2024/03/13 05:51:14;;;;;;;61.08;21.67;;;;;;;;;;5055031;28;20028;-74
2024/03/13 05:53:40;;;;;;;65.90;23.27;;;;;;;;;;5053724;28;20491;-75
2024/03/13 05:56:06;;;;;;;67.05;22.38;;;;;;;;;;5055603;28;20027;-75
2024/03/13 05:58:32;;;;;;;47.75;16.85;;;;;;;;;;5054160;28;20472;-76
2024/03/13 06:01:01;;;;;;;49.45;18.48;;;;;;;;;;5055274;28;20053;-75
2024/03/13 06:03:29;;;;;;;56.90;19.42;;;;;;;;;;5054879;28;20511;-74
2024/03/13 06:05:55;;;;;;;44.33;17.67;;;;;;;;;;5053680;28;20393;-75
2024/03/13 06:08:21;;;;;;;48.47;18.17;;;;;;;;;;5053093;28;20050;-75
2024/03/13 06:10:48;;;;;;;57.35;19.67;;;;;;;;;;5053558;28;20025;-75
2024/03/13 06:13:15;;;;;;;57.20;19.27;;;;;;;;;;5054808;28;20480;-75
2024/03/13 06:15:41;;;;;;;47.45;17.88;;;;;;;;;;5054652;28;20036;-75
2024/03/13 06:18:08;;;;;;;53.35;19.25;;;;;;;;;;5053527;28;20021;-75
2024/03/13 06:20:36;;;;;;;43.00;16.45;;;;;;;;;;5054460;28;20028;-75
2024/03/13 06:23:02;;;;;;;39.95;15.82;;;;;;;;;;5053240;28;20049;-76
2024/03/13 06:25:28;;;;;;;45.28;17.17;;;;;;;;;;5054747;28;20079;-75
2024/03/13 06:28:01;;;;;;;38.70;15.85;;;;;;;;;;5053241;28;20027;-75
2024/03/13 06:30:27;;;;;;;35.38;14.73;;;;;;;;;;5054366;28;20025;-74
2024/03/13 06:32:53;;;;;;;36.00;15.45;;;;;;;;;;5054308;28;20032;-75
2024/03/13 06:35:19;;;;;;;32.75;14.85;;;;;;;;;;5053005;28;20035;-75
2024/03/13 06:37:46;;;;;;;39.42;14.55;;;;;;;;;;5054547;28;20025;-76
2024/03/13 06:40:13;;;;;;;31.88;12.93;;;;;;;;;;5052629;28;20482;-75
2024/03/13 06:42:39;;;;;;;30.40;13.93;;;;;;;;;;5053910;28;20095;-74
2024/03/13 06:45:05;;;;;;;31.67;13.82;;;;;;;;;;5052835;28;20033;-74
2024/03/13 06:47:31;;;;;;;29.42;12.27;;;;;;;;;;5053920;28;20495;-74
2024/03/13 06:49:58;;;;;;;29.83;12.93;;;;;;;;;;5054059;28;20031;-74
2024/03/13 06:52:24;;;;;;;22.77;9.80;;;;;;;;;;5052414;28;20110;-74
2024/03/13 06:54:50;;;;;;;29.73;11.55;;;;;;;;;;5052751;28;20029;-74
2024/03/13 06:57:16;;;;;;;25.27;10.45;;;;;;;;;;5053892;28;20029;-73
2024/03/13 06:59:44;;;;;;;22.45;11.25;;;;;;;;;;5053752;28;20105;-73
2024/03/13 07:02:14;;;;;;;19.77;10.15;;;;;;;;;;5053885;28;20069;-74
2024/03/13 07:04:40;;;;;;;23.77;10.70;;;;;;;;;;5052164;28;20065;-73
2024/03/13 07:07:06;;;;;;;22.05;11.13;;;;;;;;;;5052327;28;20120;-74
2024/03/13 07:09:32;;;;;;;24.70;11.90;;;;;;;;;;5052349;28;20036;-74
2024/03/13 07:11:58;;;;;;;23.30;11.80;;;;;;;;;;5053747;28;20028;-72
2024/03/13 07:14:24;;;;;;;25.45;11.88;;;;;;;;;;5052032;28;20032;-73
2024/03/13 07:16:51;;;;;;;33.58;14.27;;;;;;;;;;5053880;28;20021;-74
2024/03/13 07:19:19;;;;;;;29.23;13.57;;;;;;;;;;5052322;28;20460;-75
2024/03/13 07:21:45;;;;;;;32.40;14.48;;;;;;;;;;5052199;28;20094;-74
2024/03/13 07:24:12;;;;;;;35.10;16.75;;;;;;;;;;5051983;28;20402;-75
2024/03/13 07:26:39;;;;;;;33.38;14.73;;;;;;;;;;5053296;28;20051;-75
2024/03/13 07:29:05;;;;;;;31.80;16.40;;;;;;;;;;5053490;28;20051;-74
2024/03/13 07:31:31;;;;;;;31.10;15.18;;;;;;;;;;5053145;28;20025;-75
2024/03/13 07:33:57;;;;;;;37.85;16.45;;;;;;;;;;5053147;28;20021;-73
2024/03/13 07:36:23;;;;;;;34.40;16.88;;;;;;;;;;5051833;28;20047;-76
2024/03/13 07:38:50;;;;;;;39.20;17.67;;;;;;;;;;5051945;28;20044;-74
2024/03/13 07:41:16;;;;;;;33.65;16.98;;;;;;;;;;5053175;28;20021;-74
2024/03/13 07:43:42;;;;;;;35.45;16.67;;;;;;;;;;5051689;28;20044;-74
2024/03/13 07:46:12;;;;;;;36.75;16.83;;;;;;;;;;5051985;28;20032;-75
2024/03/13 07:48:38;;;;;;;38.10;18.75;;;;;;;;;;5051580;28;20029;-75
2024/03/13 07:51:06;;;;;;;38.88;18.13;;;;;;;;;;5053383;28;20021;-75
2024/03/13 07:53:33;;;;;;;39.15;19.73;;;;;;;;;;5052155;28;20037;-75
2024/03/13 07:55:59;;;;;;;34.50;16.02;;;;;;;;;;5052993;28;20018;-74
2024/03/13 07:58:25;;;;;;;41.28;18.60;;;;;;;;;;5052981;28;20028;-74
2024/03/13 08:00:52;;;;;;;39.45;17.58;;;;;;;;;;5051526;28;20025;-75
2024/03/13 08:03:18;;;;;;;37.53;18.42;;;;;;;;;;5051514;28;20465;-74
2024/03/13 08:05:55;;;;;;;36.10;17.38;;;;;;;;;;5052678;28;20029;-74
2024/03/13 08:08:21;;;;;;;35.25;17.77;;;;;;;;;;5051832;28;20131;-74
2024/03/13 08:10:47;;;;;;;36.80;17.85;;;;;;;;;;5051410;28;20022;-75
2024/03/13 08:13:13;;;;;;;38.38;19.05;;;;;;;;;;5052445;28;20460;-75
2024/03/13 08:15:39;;;;;;;39.83;19.30;;;;;;;;;;5051345;28;20035;-75
2024/03/13 08:18:09;;;;;;;39.97;18.55;;;;;;;;;;5052529;28;20109;-75
2024/03/13 08:20:35;;;;;;;32.75;16.05;;;;;;;;;;5052292;28;20029;-75
2024/03/13 08:23:03;;;;;;;39.42;18.75;;;;;;;;;;5051027;28;20464;-74
2024/03/13 08:25:30;;;;;;;38.00;19.17;;;;;;;;;;5050951;28;20021;-75
2024/03/13 08:27:58;;;;;;;31.85;17.95;;;;;;;;;;5051176;28;20029;-75
2024/03/13 08:30:26;;;;;;;30.25;17.23;;;;;;;;;;5050843;28;20055;-75
2024/03/13 08:32:53;;;;;;;34.88;18.77;;;;;;;;;;5051999;28;20362;-75
2024/03/13 08:35:21;;;;;;;37.80;19.63;;;;;;;;;;5051081;28;20423;-75
2024/03/13 08:37:47;;;;;;;36.20;20.75;;;;;;;;;;5052193;28;20021;-74
2024/03/13 08:40:14;;;;;;;34.17;18.52;;;;;;;;;;5050956;28;20377;-74
2024/03/13 08:42:40;;;;;;;36.72;19.30;;;;;;;;;;5050475;28;20037;-73
2024/03/13 08:45:10;;;;;;;39.00;19.60;;;;;;;;;;5052288;28;20029;-74
2024/03/13 08:47:38;;;;;;;38.05;19.38;;;;;;;;;;5050652;28;20040;-74
2024/03/13 08:50:04;;;;;;;34.92;19.85;;;;;;;;;;5050781;28;20021;-75
2024/03/13 08:52:31;;;;;;;37.92;20.13;;;;;;;;;;5051760;28;20036;-75
2024/03/13 08:54:57;;;;;;;29.83;15.98;;;;;;;;;;5052151;28;20461;-75
2024/03/13 08:57:24;;;;;;;35.65;17.88;;;;;;;;;;5050780;28;20028;-75
2024/03/13 08:59:50;;;;;;;33.42;18.58;;;;;;;;;;5052009;28;20021;-75
2024/03/13 09:02:16;;;;;;;30.90;17.35;;;;;;;;;;5052052;28;20033;-75
2024/03/13 09:04:43;;;;;;;29.70;17.13;;;;;;;;;;5051762;28;20025;-75
2024/03/13 09:07:10;;;;;;;32.47;16.58;;;;;;;;;;5056079;28;20017;-74
2024/03/13 09:09:37;;;;;;;35.83;15.88;;;;;;;;;;5055769;28;20461;-75
2024/03/13 09:12:04;;;;;;;29.67;15.30;;;;;;;;;;5054718;28;20036;-74
2024/03/13 09:14:30;;;;;;;29.73;14.40;;;;;;;;;;5054425;28;20039;-75
2024/03/13 09:16:57;;;;;;;24.98;13.05;;;;;;;;;;5055884;28;20101;-75
2024/03/13 09:19:23;;;;;;;22.40;12.32;;;;;;;;;;5054545;28;20033;-75
2024/03/13 09:21:50;;;;;;;21.77;10.48;;;;;;;;;;5055576;28;20036;-75
2024/03/13 09:24:16;;;;;;;23.05;11.93;;;;;;;;;;5055280;28;20049;-75
2024/03/13 09:26:42;;;;;;;22.60;12.27;;;;;;;;;;5055478;28;20175;-75
2024/03/13 09:29:08;;;;;;;23.27;10.98;;;;;;;;;;5054432;28;20084;-75
2024/03/13 09:31:40;;;;;;;20.88;11.70;;;;;;;;;;5053979;28;20025;-75
2024/03/13 09:34:10;;;;;;;15.48;8.52;;;;;;;;;;5054239;28;20445;-75
2024/03/13 09:36:36;;;;;;;19.90;9.63;;;;;;;;;;5055321;28;20031;-75
2024/03/13 09:39:04;;;;;;;22.85;9.65;;;;;;;;;;5055326;28;20100;-75
2024/03/13 09:41:30;;;;;;;18.17;9.80;;;;;;;;;;5055470;28;20059;-76
2024/03/13 09:43:57;;;;;;;22.15;9.98;;;;;;;;;;5055218;28;20029;-75
2024/03/13 09:46:24;;;;;;;17.83;8.70;;;;;;;;;;5055443;28;20473;-75
2024/03/13 09:48:51;;;;;;;16.15;9.00;;;;;;;;;;5053848;28;20025;-74
2024/03/13 09:51:18;;;;;;;15.95;8.65;;;;;;;;;;5053895;28;20037;-75
2024/03/13 09:53:45;;;;;;;21.02;9.57;;;;;;;;;;5053696;28;20025;-74
2024/03/13 09:56:13;;;;;;;22.30;10.48;;;;;;;;;;5055072;28;20504;-75
2024/03/13 09:58:44;;;;;;;19.63;10.88;;;;;;;;;;5053419;28;20468;-74
2024/03/13 10:01:12;;;;;;;21.95;11.35;;;;;;;;;;5055152;28;20055;-75
2024/03/13 10:03:38;;;;;;;18.70;11.25;;;;;;;;;;5055361;28;20021;-75
2024/03/13 10:06:06;;;;;;;22.30;11.52;;;;;;;;;;5055309;28;20096;-75
2024/03/13 10:08:35;;;;;;;26.73;13.45;;;;;;;;;;5054450;28;20484;-76
2024/03/13 10:11:01;;;;;;;23.77;12.40;;;;;;;;;;5053587;28;20440;-75
2024/03/13 10:13:31;;;;;;;24.45;13.05;;;;;;;;;;5053484;28;20033;-75
2024/03/13 10:15:59;;;;;;;28.17;14.77;;;;;;;;;;5052970;28;20037;-75
2024/03/13 10:18:26;;;;;;;28.27;15.95;;;;;;;;;;5053574;28;20067;-76
2024/03/13 10:21:03;;;;;;;31.10;15.57;;;;;;;;;;5053231;28;20075;-76
2024/03/13 10:23:30;;;;;;;36.00;18.10;;;;;;;;;;5054422;28;20098;-75
2024/03/13 10:25:56;;;;;;;35.03;16.95;;;;;;;;;;5053438;28;20029;-75
2024/03/13 10:28:23;;;;;;;38.88;18.15;;;;;;;;;;5054764;28;20017;-75
2024/03/13 10:30:57;;;;;;;35.92;17.88;;;;;;;;;;5053345;28;20108;-75
2024/03/13 10:33:24;;;;;;;40.25;21.30;;;;;;;;;;5054367;28;20025;-76
2024/03/13 10:35:50;;;;;;;40.58;20.45;;;;;;;;;;5052961;28;20116;-76
2024/03/13 10:38:16;;;;;;;43.45;20.98;;;;;;;;;;5053093;28;20035;-74
2024/03/13 10:40:42;;;;;;;37.70;20.95;;;;;;;;;;5054075;28;20036;-75
2024/03/13 10:43:09;;;;;;;47.38;21.80;;;;;;;;;;5052971;28;20045;-76
2024/03/13 10:45:36;;;;;;;44.50;22.67;;;;;;;;;;5054072;28;20017;-75
2024/03/13 10:48:03;;;;;;;44.55;21.70;;;;;;;;;;5052973;28;20083;-74
2024/03/13 10:50:33;;;;;;;42.92;23.50;;;;;;;;;;5054450;28;20063;-75
2024/03/13 10:53:01;;;;;;;44.15;20.80;;;;;;;;;;5052687;28;20051;-76
2024/03/13 10:55:27;;;;;;;36.70;17.55;;;;;;;;;;5054091;28;20036;-75
2024/03/13 10:57:53;;;;;;;43.22;22.33;;;;;;;;;;5053914;28;20033;-75
2024/03/13 11:00:22;;;;;;;44.75;21.13;;;;;;;;;;5053743;28;20021;-75
2024/03/13 11:02:51;;;;;;;38.70;21.15;;;;;;;;;;5052462;28;20059;-75
2024/03/13 11:05:17;;;;;;;45.17;22.70;;;;;;;;;;5054025;28;20029;-75
2024/03/13 11:07:45;;;;;;;38.83;24.35;;;;;;;;;;5052278;28;20017;-76
2024/03/13 11:10:21;;;;;;;38.42;20.65;;;;;;;;;;5052591;28;20029;-75
2024/03/13 11:12:49;;;;;;;38.90;20.17;;;;;;;;;;5052179;28;20087;-74
2024/03/13 11:15:17;;;;;;;33.45;18.65;;;;;;;;;;5053750;28;20021;-74
2024/03/13 11:17:50;;;;;;;35.08;20.25;;;;;;;;;;5052188;28;20021;-74
2024/03/13 11:20:20;;;;;;;32.92;19.77;;;;;;;;;;5053499;28;20029;-75
2024/03/13 11:22:47;;;;;;;30.63;19.13;;;;;;;;;;5051804;28;20082;-76
2024/03/13 11:25:18;;;;;;;41.08;22.63;;;;;;;;;;5052289;28;20274;-75
2024/03/13 11:27:46;;;;;;;29.10;17.00;;;;;;;;;;5052236;28;20025;-76
2024/03/13 11:30:17;;;;;;;30.45;17.42;;;;;;;;;;5052146;28;20032;-75
2024/03/13 11:32:44;;;;;;;32.92;19.40;;;;;;;;;;5051724;28;20036;-75
2024/03/13 11:35:11;;;;;;;30.15;18.65;;;;;;;;;;5053030;28;20055;-75
2024/03/13 11:37:37;;;;;;;39.42;22.98;;;;;;;;;;5052615;28;20064;-75
2024/03/13 11:40:03;;;;;;;35.08;21.20;;;;;;;;;;5051748;28;20024;-75
2024/03/13 11:42:33;;;;;;;31.98;18.55;;;;;;;;;;5051717;28;20029;-76
2024/03/13 11:45:15;;;;;;;25.17;16.05;;;;;;;;;;5051613;28;20024;-76
2024/03/13 11:47:41;;;;;;;32.42;18.13;;;;;;;;;;5052811;28;20445;-74
2024/03/13 11:50:11;;;;;;;30.40;17.63;;;;;;;;;;5053014;28;20064;-75
2024/03/13 11:52:37;;;;;;;32.90;18.63;;;;;;;;;;5051367;28;20211;-76
2024/03/13 11:55:05;;;;;;;24.83;17.50;;;;;;;;;;5051753;28;20112;-76
2024/03/13 11:57:31;;;;;;;31.55;17.13;;;;;;;;;;5051492;28;20465;-76
2024/03/13 11:59:57;;;;;;;28.65;15.57;;;;;;;;;;5051419;28;20025;-76
2024/03/13 12:02:32;;;;;;;33.70;20.20;;;;;;;;;;5053276;28;20258;-75
2024/03/13 12:05:03;;;;;;;26.30;17.10;;;;;;;;;;5051273;28;20025;-76
2024/03/13 12:07:34;;;;;;;34.40;20.70;;;;;;;;;;5051595;28;20071;-75
2024/03/13 12:10:04;;;;;;;31.42;19.20;;;;;;;;;;5051316;28;20029;-76
2024/03/13 12:12:30;;;;;;;29.77;20.47;;;;;;;;;;5051282;28;20098;-75
2024/03/13 12:14:56;;;;;;;26.67;16.40;;;;;;;;;;5052387;28;20071;-75
2024/03/13 12:17:22;;;;;;;38.13;22.08;;;;;;;;;;5051308;28;20115;-75
2024/03/13 12:19:48;;;;;;;33.33;23.25;;;;;;;;;;5050992;28;20054;-76
2024/03/13 12:22:14;;;;;;;28.65;20.13;;;;;;;;;;5051101;28;20029;-75
2024/03/13 12:24:40;;;;;;;38.15;21.73;;;;;;;;;;5051817;28;20049;-76
2024/03/13 12:27:09;;;;;;;39.95;22.60;;;;;;;;;;5050749;28;20078;-76
2024/03/13 12:29:38;;;;;;;34.33;22.15;;;;;;;;;;5051033;28;20186;-75
2024/03/13 12:32:06;;;;;;;30.20;21.40;;;;;;;;;;5050857;28;20032;-75
2024/03/13 12:34:32;;;;;;;38.38;23.05;;;;;;;;;;5051868;28;20381;-76
2024/03/13 12:36:58;;;;;;;36.33;19.88;;;;;;;;;;5051808;28;20090;-75
2024/03/13 12:39:24;;;;;;;45.25;25.48;;;;;;;;;;5050743;28;20051;-76
2024/03/13 12:41:51;;;;;;;37.75;25.10;;;;;;;;;;5050859;28;20048;-75
2024/03/13 12:44:18;;;;;;;26.65;17.45;;;;;;;;;;5051292;28;20027;-75
2024/03/13 12:46:45;;;;;;;43.83;25.85;;;;;;;;;;5052068;28;20401;-75
2024/03/13 12:49:15;;;;;;;39.28;28.17;;;;;;;;;;5050857;28;20029;-76
2024/03/13 12:51:41;;;;;;;47.55;28.95;;;;;;;;;;5050352;28;20021;-75
2024/03/13 12:54:07;;;;;;;45.05;26.85;;;;;;;;;;5052321;28;20040;-76
2024/03/13 12:56:34;;;;;;;42.20;28.23;;;;;;;;;;5052001;28;20121;-75
2024/03/13 12:59:00;;;;;;;45.53;29.40;;;;;;;;;;5050391;28;20488;-75
2024/03/13 13:01:26;;;;;;;47.53;28.08;;;;;;;;;;5050607;28;20029;-75
2024/03/13 13:03:53;;;;;;;53.65;29.65;;;;;;;;;;5050349;28;20376;-74
2024/03/13 13:06:19;;;;;;;47.53;27.98;;;;;;;;;;5050678;28;20032;-75
2024/03/13 13:08:48;;;;;;;44.47;28.75;;;;;;;;;;5050470;28;20082;-75
2024/03/13 13:11:14;;;;;;;50.50;28.33;;;;;;;;;;5051963;28;20104;-75
2024/03/13 13:13:40;;;;;;;43.05;27.83;;;;;;;;;;5050536;28;20063;-74
2024/03/13 13:16:09;;;;;;;48.47;27.38;;;;;;;;;;5052186;28;20468;-75
2024/03/13 13:18:41;;;;;;;49.40;27.92;;;;;;;;;;5051999;28;20150;-75
2024/03/13 13:21:09;;;;;;;35.70;23.90;;;;;;;;;;5051806;28;20071;-75
2024/03/13 13:23:38;;;;;;;44.85;26.60;;;;;;;;;;5050327;28;20127;-76
2024/03/13 13:26:05;;;;;;;41.47;26.05;;;;;;;;;;5050400;28;20027;-75
2024/03/13 13:28:31;;;;;;;40.65;26.38;;;;;;;;;;5050435;28;20056;-76
2024/03/13 13:30:57;;;;;;;44.08;25.38;;;;;;;;;;5051618;28;20021;-76
2024/03/13 13:33:23;;;;;;;46.67;27.98;;;;;;;;;;5051712;28;20031;-76
2024/03/13 13:35:49;;;;;;;39.72;23.83;;;;;;;;;;5051523;28;20063;-75
2024/03/13 13:38:18;;;;;;;44.90;25.75;;;;;;;;;;5051684;28;20025;-76
2024/03/13 13:40:44;;;;;;;37.90;24.80;;;;;;;;;;5050016;28;20021;-76
2024/03/13 13:43:10;;;;;;;42.47;24.45;;;;;;;;;;5050474;28;20025;-76
2024/03/13 13:45:37;;;;;;;45.05;25.45;;;;;;;;;;5051674;28;20029;-74
2024/03/13 13:48:09;;;;;;;40.22;23.40;;;;;;;;;;5051419;28;20383;-76
2024/03/13 13:50:35;;;;;;;35.15;22.20;;;;;;;;;;5052538;28;20024;-76
2024/03/13 13:53:01;;;;;;;34.53;19.80;;;;;;;;;;5054943;28;20036;-76
2024/03/13 13:55:27;;;;;;;31.65;21.02;;;;;;;;;;5054089;28;20029;-76
2024/03/13 13:57:53;;;;;;;36.88;20.48;;;;;;;;;;5053736;28;20055;-76
2024/03/13 14:00:21;;;;;;;33.40;19.35;;;;;;;;;;5053865;28;20059;-76
2024/03/13 14:02:47;;;;;;;31.70;18.88;;;;;;;;;;5053600;28;20119;-76
2024/03/13 14:05:13;;;;;;;30.85;17.45;;;;;;;;;;5055102;28;20040;-76
2024/03/13 14:07:40;;;;;;;25.10;16.27;;;;;;;;;;5053594;28;20026;-76
2024/03/13 14:10:10;;;;;;;25.30;16.23;;;;;;;;;;5053371;28;20573;-76
2024/03/13 14:12:37;;;;;;;28.27;16.65;;;;;;;;;;5054739;28;20035;-75
2024/03/13 14:15:04;;;;;;;30.73;17.98;;;;;;;;;;5053313;28;20021;-75
2024/03/13 14:17:36;;;;;;;30.52;16.83;;;;;;;;;;5054728;28;20035;-75
2024/03/13 14:20:11;;;;;;;25.70;15.55;;;;;;;;;;5052920;28;20021;-75
2024/03/13 14:22:37;;;;;;;28.23;16.65;;;;;;;;;;5053252;28;20071;-75
2024/03/13 14:25:03;;;;;;;26.27;16.63;;;;;;;;;;5052821;28;20060;-76
2024/03/13 14:27:29;;;;;;;22.60;15.05;;;;;;;;;;5053228;28;20017;-76
2024/03/13 14:29:55;;;;;;;23.67;15.15;;;;;;;;;;5054681;28;20067;-76
2024/03/13 14:32:23;;;;;;;27.88;14.20;;;;;;;;;;5052975;28;20469;-76
2024/03/13 14:34:51;;;;;;;26.67;14.15;;;;;;;;;;5052844;28;20495;-76